createdAt,value
2016-11-30T00:00:04.664Z,929.75
2016-11-30T00:00:19.209Z,929.79
2016-11-30T00:00:33.763Z,929.87
2016-11-30T00:00:48.314Z,929.83
2016-11-30T00:01:02.832Z,929.79
2016-11-30T00:01:17.244Z,929.75
2016-11-30T00:01:31.988Z,929.81
2016-11-30T00:01:46.581Z,929.79
2016-11-30T00:02:01.171Z,929.81
2016-11-30T00:02:16.476Z,929.82
2016-11-30T00:02:31.146Z,929.78
2016-11-30T00:02:45.828Z,929.72
2016-11-30T00:03:00.264Z,929.8
2016-11-30T00:03:14.691Z,929.77
2016-11-30T00:03:29.183Z,929.8
2016-11-30T00:03:43.639Z,929.78
2016-11-30T00:03:58.056Z,929.77
2016-11-30T00:04:12.536Z,929.69
2016-11-30T00:04:26.920Z,929.78
2016-11-30T00:04:41.404Z,929.65
2016-11-30T00:04:56.015Z,929.78
2016-11-30T00:05:10.547Z,929.8
2016-11-30T00:05:25.058Z,929.78
2016-11-30T00:05:39.561Z,929.78
2016-11-30T00:05:54.890Z,929.75
2016-11-30T00:06:09.473Z,929.85
2016-11-30T00:06:23.962Z,929.82
2016-11-30T00:06:38.411Z,929.78
2016-11-30T00:06:53.096Z,929.84
2016-11-30T00:07:07.713Z,929.79
2016-11-30T00:07:22.342Z,929.87
2016-11-30T00:07:36.925Z,929.73
2016-11-30T00:07:51.618Z,929.81
2016-11-30T00:08:06.222Z,929.77
2016-11-30T00:08:20.669Z,929.82
2016-11-30T00:08:35.121Z,929.83
2016-11-30T00:08:49.627Z,929.78
2016-11-30T00:09:04.507Z,929.9
2016-11-30T00:09:19.107Z,929.82
2016-11-30T00:09:33.761Z,929.76
2016-11-30T00:09:48.283Z,929.81
2016-11-30T00:10:02.959Z,929.77
2016-11-30T00:10:17.574Z,930.02
2016-11-30T00:10:32.281Z,929.84
2016-11-30T00:10:47.133Z,929.63
2016-11-30T00:11:01.701Z,929.77
2016-11-30T00:11:16.116Z,929.84
2016-11-30T00:11:30.664Z,929.79
2016-11-30T00:11:45.053Z,929.81
2016-11-30T00:11:59.589Z,929.78
2016-11-30T00:12:14.234Z,929.84
2016-11-30T00:12:28.717Z,929.8
2016-11-30T00:12:43.156Z,929.81
2016-11-30T00:12:57.725Z,929.85
2016-11-30T00:13:12.237Z,929.85
2016-11-30T00:13:26.771Z,929.92
2016-11-30T00:13:41.466Z,929.89
2016-11-30T00:13:55.994Z,929.89
2016-11-30T00:14:10.684Z,929.88
2016-11-30T00:14:25.278Z,929.89
2016-11-30T00:14:39.889Z,929.89
2016-11-30T00:14:54.448Z,929.97
2016-11-30T00:15:09.045Z,929.91
2016-11-30T00:15:23.547Z,929.95
2016-11-30T00:15:37.998Z,929.87
2016-11-30T00:15:52.392Z,930.02
2016-11-30T00:16:06.888Z,929.88
2016-11-30T00:16:21.329Z,929.98
2016-11-30T00:16:35.910Z,929.94
2016-11-30T00:16:50.378Z,930.03
2016-11-30T00:17:04.964Z,930.01
2016-11-30T00:17:19.418Z,929.96
2016-11-30T00:17:34.011Z,930.05
2016-11-30T00:17:48.583Z,930
2016-11-30T00:18:03.191Z,929.93
2016-11-30T00:18:17.806Z,930.01
2016-11-30T00:18:32.335Z,930
2016-11-30T00:18:46.838Z,930.06
2016-11-30T00:19:01.346Z,930.01
2016-11-30T00:19:15.794Z,929.97
2016-11-30T00:19:30.549Z,930.01
2016-11-30T00:19:44.989Z,930
2016-11-30T00:19:59.451Z,929.93
2016-11-30T00:20:13.853Z,929.98
2016-11-30T00:20:28.388Z,930.02
2016-11-30T00:20:42.918Z,929.99
2016-11-30T00:20:57.550Z,929.97
2016-11-30T00:21:12.189Z,929.96
2016-11-30T00:21:26.746Z,930.06
2016-11-30T00:21:41.380Z,929.99
2016-11-30T00:21:55.976Z,930.05
2016-11-30T00:22:10.462Z,929.96
2016-11-30T00:22:25.059Z,930.05
2016-11-30T00:22:39.593Z,930
2016-11-30T00:22:54.234Z,930.02
2016-11-30T00:23:08.752Z,929.96
2016-11-30T00:23:23.552Z,929.99
2016-11-30T00:23:38.234Z,930.1
2016-11-30T00:23:52.799Z,930.03
2016-11-30T00:24:07.487Z,930.01
2016-11-30T00:24:22.370Z,929.99
2016-11-30T00:24:37.070Z,930.04
2016-11-30T00:24:51.898Z,930.12
2016-11-30T00:25:06.570Z,930.05
2016-11-30T00:25:21.119Z,930.02
2016-11-30T00:25:35.607Z,930.06
2016-11-30T00:25:50.101Z,930.27
2016-11-30T00:26:04.481Z,930.14
2016-11-30T00:26:19.183Z,929.93
2016-11-30T00:26:33.786Z,930.04
2016-11-30T00:26:48.495Z,929.93
2016-11-30T00:27:03.043Z,930.09
2016-11-30T00:27:17.564Z,930.02
2016-11-30T00:27:32.113Z,930.01
2016-11-30T00:27:46.494Z,930.17
2016-11-30T00:28:00.977Z,930.15
2016-11-30T00:28:15.689Z,930.18
2016-11-30T00:28:30.298Z,930.3
2016-11-30T00:28:44.826Z,930.28
2016-11-30T00:28:59.503Z,930.24
2016-11-30T00:29:14.301Z,930.03
2016-11-30T00:29:28.819Z,930.06
2016-11-30T00:29:44.355Z,930.03
2016-11-30T00:29:58.806Z,930.13
2016-11-30T00:30:13.410Z,930.1
2016-11-30T00:30:28.623Z,929.96
2016-11-30T00:30:43.659Z,930.03
2016-11-30T00:30:58.143Z,930.01
2016-11-30T00:31:12.718Z,930.08
2016-11-30T00:31:27.238Z,930.06
2016-11-30T00:31:41.915Z,930.03
2016-11-30T00:31:56.409Z,930.09
2016-11-30T00:32:11.120Z,930.12
2016-11-30T00:32:26.227Z,930.06
2016-11-30T00:32:40.726Z,930.04
2016-11-30T00:32:55.331Z,930.06
2016-11-30T00:33:09.958Z,930.2
2016-11-30T00:33:24.493Z,930.13
2016-11-30T00:33:39.043Z,930.06
2016-11-30T00:33:53.570Z,930.11
2016-11-30T00:34:07.995Z,930.07
2016-11-30T00:34:22.323Z,930.01
2016-11-30T00:34:36.835Z,930.03
2016-11-30T00:34:51.483Z,930.07
2016-11-30T00:35:06.075Z,930.02
2016-11-30T00:35:20.640Z,930.07
2016-11-30T00:35:35.427Z,930.05
2016-11-30T00:35:50.009Z,930.06
2016-11-30T00:36:04.531Z,930.05
2016-11-30T00:36:19.011Z,930.14
2016-11-30T00:36:33.715Z,930.03
2016-11-30T00:36:48.257Z,930.08
2016-11-30T00:37:02.751Z,930.09
2016-11-30T00:37:17.281Z,930.1
2016-11-30T00:37:31.716Z,930.04
2016-11-30T00:37:46.254Z,930.09
2016-11-30T00:38:00.797Z,930.01
2016-11-30T00:38:15.397Z,930.03
2016-11-30T00:38:30.048Z,930.04
2016-11-30T00:38:44.536Z,930.06
2016-11-30T00:38:59.245Z,930.05
2016-11-30T00:39:13.668Z,930.06
2016-11-30T00:39:28.573Z,930.06
2016-11-30T00:39:43.013Z,930.15
2016-11-30T00:39:57.572Z,930.02
2016-11-30T00:40:11.998Z,930.02
2016-11-30T00:40:26.555Z,930.01
2016-11-30T00:40:41.083Z,930.01
2016-11-30T00:40:55.622Z,930.1
2016-11-30T00:41:10.079Z,930.06
2016-11-30T00:41:24.747Z,930.1
2016-11-30T00:41:39.086Z,930.08
2016-11-30T00:41:53.582Z,930.11
2016-11-30T00:42:08.182Z,930.11
2016-11-30T00:42:22.826Z,930.08
2016-11-30T00:42:37.287Z,930.05
2016-11-30T00:42:51.845Z,930.15
2016-11-30T00:43:06.365Z,930.08
2016-11-30T00:43:20.863Z,930.1
2016-11-30T00:43:35.335Z,930.24
2016-11-30T00:43:49.777Z,930.33
2016-11-30T00:44:04.264Z,930.07
2016-11-30T00:44:18.725Z,930.17
2016-11-30T00:44:33.299Z,930.27
2016-11-30T00:44:47.771Z,930.23
2016-11-30T00:45:02.296Z,930.2
2016-11-30T00:45:16.888Z,930.18
2016-11-30T00:45:31.327Z,930.18
2016-11-30T00:45:45.916Z,930.27
2016-11-30T00:46:00.381Z,930.23
2016-11-30T00:46:14.876Z,930.15
2016-11-30T00:46:29.466Z,930.24
2016-11-30T00:46:43.977Z,930.18
2016-11-30T00:46:58.524Z,930.18
2016-11-30T00:47:12.960Z,930.18
2016-11-30T00:47:27.391Z,930.25
2016-11-30T00:47:41.777Z,930.27
2016-11-30T00:47:56.118Z,930.34
2016-11-30T00:48:10.516Z,930.32
2016-11-30T00:48:24.983Z,930.29
2016-11-30T00:48:39.441Z,930.22
2016-11-30T00:48:53.992Z,930.29
2016-11-30T00:49:08.793Z,930.19
2016-11-30T00:49:23.316Z,930.23
2016-11-30T00:49:37.780Z,930.23
2016-11-30T00:49:52.297Z,930.22
2016-11-30T00:50:06.871Z,930.25
2016-11-30T00:50:21.466Z,930.28
2016-11-30T00:50:36.005Z,930.31
2016-11-30T00:50:50.557Z,930.21
2016-11-30T00:51:05.189Z,930.21
2016-11-30T00:51:19.790Z,930.2
2016-11-30T00:51:34.377Z,930.23
2016-11-30T00:51:49.012Z,930.24
2016-11-30T00:52:03.790Z,930.24
2016-11-30T00:52:18.323Z,930.26
2016-11-30T00:52:32.765Z,930.24
2016-11-30T00:52:47.417Z,930.16
2016-11-30T00:53:02.002Z,930.2
2016-11-30T00:53:16.561Z,930.13
2016-11-30T00:53:31.011Z,930.22
2016-11-30T00:53:45.626Z,930.2
2016-11-30T00:54:00.203Z,930.16
2016-11-30T00:54:14.760Z,930.18
2016-11-30T00:54:29.682Z,930.23
2016-11-30T00:54:44.201Z,930.2
2016-11-30T00:54:58.731Z,930.23
2016-11-30T00:55:13.412Z,930.36
2016-11-30T00:55:27.837Z,930.19
2016-11-30T00:55:42.280Z,930.22
2016-11-30T00:55:56.787Z,930.19
2016-11-30T00:56:11.223Z,930.17
2016-11-30T00:56:25.623Z,930.2
2016-11-30T00:56:40.291Z,930.16
2016-11-30T00:56:54.870Z,930.2
2016-11-30T00:57:09.557Z,930.22
2016-11-30T00:57:24.208Z,930.25
2016-11-30T00:57:38.812Z,930.35
2016-11-30T00:57:53.511Z,930.22
2016-11-30T00:58:08.008Z,930.18
2016-11-30T00:58:22.539Z,930.21
2016-11-30T00:58:37.021Z,930.23
2016-11-30T00:58:51.641Z,930.17
2016-11-30T00:59:06.119Z,930.18
2016-11-30T00:59:20.567Z,930.23
2016-11-30T00:59:35.020Z,930.25
2016-11-30T00:59:49.580Z,930.23
2016-11-30T01:00:04.113Z,930.22
2016-11-30T01:00:18.550Z,930.23
2016-11-30T01:00:32.951Z,930.32
2016-11-30T01:00:47.377Z,930.2
2016-11-30T01:01:01.960Z,930.27
2016-11-30T01:01:16.323Z,930.26
2016-11-30T01:01:30.856Z,930.27
2016-11-30T01:01:45.291Z,930.22
2016-11-30T01:01:59.904Z,930.21
2016-11-30T01:02:14.352Z,930.24
2016-11-30T01:02:28.800Z,930.3
2016-11-30T01:02:43.260Z,930.2
2016-11-30T01:02:57.716Z,930.28
2016-11-30T01:03:12.264Z,930.24
2016-11-30T01:03:26.682Z,930.27
2016-11-30T01:03:41.240Z,930.22
2016-11-30T01:03:55.755Z,930.21
2016-11-30T01:04:10.209Z,930.24
2016-11-30T01:04:24.610Z,930.17
2016-11-30T01:04:39.155Z,930.23
2016-11-30T01:04:53.507Z,930.2
2016-11-30T01:05:07.956Z,930.19
2016-11-30T01:05:22.391Z,930.19
2016-11-30T01:05:36.748Z,930.19
2016-11-30T01:05:51.203Z,930.18
2016-11-30T01:06:05.566Z,930.18
2016-11-30T01:06:20.096Z,930.19
2016-11-30T01:06:34.559Z,930.22
2016-11-30T01:06:49.048Z,930.28
2016-11-30T01:07:03.481Z,930.23
2016-11-30T01:07:17.972Z,930.32
2016-11-30T01:07:32.452Z,930.26
2016-11-30T01:07:46.839Z,930.24
2016-11-30T01:08:01.318Z,930.35
2016-11-30T01:08:15.746Z,930.31
2016-11-30T01:08:30.204Z,930.44
2016-11-30T01:08:44.709Z,930.34
2016-11-30T01:08:59.172Z,930.33
2016-11-30T01:09:13.571Z,930.27
2016-11-30T01:09:28.082Z,930.45
2016-11-30T01:09:42.823Z,930.35
2016-11-30T01:09:57.322Z,930.5
2016-11-30T01:10:11.687Z,930.22
2016-11-30T01:10:26.029Z,930.33
2016-11-30T01:10:40.502Z,930.24
2016-11-30T01:10:54.897Z,930.42
2016-11-30T01:11:09.286Z,930.44
2016-11-30T01:11:23.620Z,930.38
2016-11-30T01:11:38.057Z,930.33
2016-11-30T01:11:52.439Z,930.37
2016-11-30T01:12:06.781Z,930.32
2016-11-30T01:12:21.268Z,930.34
2016-11-30T01:12:35.659Z,930.32
2016-11-30T01:12:49.958Z,930.36
2016-11-30T01:13:04.288Z,930.32
2016-11-30T01:13:18.711Z,930.26
2016-11-30T01:13:33.072Z,930.25
2016-11-30T01:13:47.438Z,930.32
2016-11-30T01:14:01.807Z,930.32
2016-11-30T01:14:16.193Z,930.29
2016-11-30T01:14:30.674Z,930.27
2016-11-30T01:14:45.139Z,930.33
2016-11-30T01:14:59.588Z,930.28
2016-11-30T01:15:13.909Z,930.3
2016-11-30T01:15:28.283Z,930.32
2016-11-30T01:15:42.679Z,930.28
2016-11-30T01:15:56.977Z,930.26
2016-11-30T01:16:11.331Z,930.31
2016-11-30T01:16:25.725Z,930.27
2016-11-30T01:16:40.077Z,930.26
2016-11-30T01:16:54.485Z,930.28
2016-11-30T01:17:08.867Z,930.27
2016-11-30T01:17:23.339Z,930.26
2016-11-30T01:17:37.745Z,930.27
2016-11-30T01:17:52.144Z,930.22
2016-11-30T01:18:06.574Z,930.27
2016-11-30T01:18:20.953Z,930.22
2016-11-30T01:18:35.371Z,930.16
2016-11-30T01:18:49.750Z,930.15
2016-11-30T01:19:04.191Z,930.34
2016-11-30T01:19:18.620Z,930.29
2016-11-30T01:19:33.024Z,930.21
2016-11-30T01:19:47.501Z,930.22
2016-11-30T01:20:01.878Z,930.29
2016-11-30T01:20:16.271Z,930.25
2016-11-30T01:20:30.644Z,930.23
2016-11-30T01:20:45.099Z,930.35
2016-11-30T01:20:59.455Z,930.24
2016-11-30T01:21:13.817Z,930.32
2016-11-30T01:21:28.229Z,930.38
2016-11-30T01:21:42.609Z,930.37
2016-11-30T01:21:57.008Z,930.22
2016-11-30T01:22:11.367Z,930.31
2016-11-30T01:22:25.677Z,930.28
2016-11-30T01:22:40.094Z,930.3
2016-11-30T01:22:54.497Z,930.36
2016-11-30T01:23:08.856Z,930.31
2016-11-30T01:23:23.247Z,930.32
2016-11-30T01:23:37.663Z,930.31
2016-11-30T01:23:52.025Z,930.35
2016-11-30T01:24:06.387Z,930.28
2016-11-30T01:24:20.745Z,930.36
2016-11-30T01:24:35.191Z,930.33
2016-11-30T01:24:49.801Z,930.33
2016-11-30T01:25:04.165Z,930.31
2016-11-30T01:25:18.622Z,930.35
2016-11-30T01:25:33.005Z,930.34
2016-11-30T01:25:47.392Z,930.43
2016-11-30T01:26:01.816Z,930.41
2016-11-30T01:26:16.285Z,930.36
2016-11-30T01:26:30.719Z,930.39
2016-11-30T01:26:45.182Z,930.27
2016-11-30T01:26:59.655Z,930.28
2016-11-30T01:27:14.118Z,930.37
2016-11-30T01:27:28.486Z,930.27
2016-11-30T01:27:42.871Z,930.25
2016-11-30T01:27:57.362Z,930.27
2016-11-30T01:28:11.785Z,930.27
2016-11-30T01:28:26.167Z,930.28
2016-11-30T01:28:40.654Z,930.28
2016-11-30T01:28:55.026Z,930.26
2016-11-30T01:29:09.464Z,930.27
2016-11-30T01:29:23.905Z,930.24
2016-11-30T01:29:38.210Z,930.25
2016-11-30T01:29:52.581Z,930.26
2016-11-30T01:30:07.074Z,930.27
2016-11-30T01:30:21.527Z,930.11
2016-11-30T01:30:35.879Z,930.3
2016-11-30T01:30:50.206Z,930.23
2016-11-30T01:31:04.603Z,930.31
2016-11-30T01:31:19.002Z,930.19
2016-11-30T01:31:33.412Z,930.35
2016-11-30T01:31:47.757Z,930.22
2016-11-30T01:32:02.109Z,930.24
2016-11-30T01:32:16.484Z,930.34
2016-11-30T01:32:30.882Z,930.29
2016-11-30T01:32:45.304Z,930.25
2016-11-30T01:32:59.734Z,930.27
2016-11-30T01:33:14.167Z,930.31
2016-11-30T01:33:28.555Z,930.24
2016-11-30T01:33:42.955Z,930.2
2016-11-30T01:33:57.356Z,930.29
2016-11-30T01:34:11.743Z,930.26
2016-11-30T01:34:26.144Z,930.32
2016-11-30T01:34:40.515Z,930.32
2016-11-30T01:34:54.891Z,930.34
2016-11-30T01:35:09.277Z,930.33
2016-11-30T01:35:23.711Z,930.51
2016-11-30T01:35:38.014Z,930.45
2016-11-30T01:35:52.398Z,930.39
2016-11-30T01:36:06.843Z,930.35
2016-11-30T01:36:21.165Z,930.32
2016-11-30T01:36:35.575Z,930.42
2016-11-30T01:36:49.967Z,930.4
2016-11-30T01:37:04.329Z,930.31
2016-11-30T01:37:18.725Z,930.42
2016-11-30T01:37:33.082Z,930.34
2016-11-30T01:37:47.476Z,930.41
2016-11-30T01:38:01.848Z,930.35
2016-11-30T01:38:16.234Z,930.27
2016-11-30T01:38:30.640Z,930.46
2016-11-30T01:38:45.045Z,930.34
2016-11-30T01:38:59.507Z,930.37
2016-11-30T01:39:13.898Z,930.32
2016-11-30T01:39:28.320Z,930.31
2016-11-30T01:39:42.735Z,930.37
2016-11-30T01:39:57.287Z,930.41
2016-11-30T01:40:11.639Z,930.35
2016-11-30T01:40:25.956Z,930.39
2016-11-30T01:40:40.359Z,930.58
2016-11-30T01:40:54.820Z,930.54
2016-11-30T01:41:09.220Z,930.53
2016-11-30T01:41:23.575Z,930.47
2016-11-30T01:41:37.980Z,930.46
2016-11-30T01:41:52.377Z,930.49
2016-11-30T01:42:06.742Z,930.56
2016-11-30T01:42:21.151Z,930.57
2016-11-30T01:42:35.588Z,930.57
2016-11-30T01:42:49.990Z,930.48
2016-11-30T01:43:04.436Z,930.51
2016-11-30T01:43:18.849Z,930.51
2016-11-30T01:43:33.166Z,930.54
2016-11-30T01:43:47.522Z,930.52
2016-11-30T01:44:01.922Z,930.53
2016-11-30T01:44:16.313Z,930.56
2016-11-30T01:44:30.725Z,930.61
2016-11-30T01:44:45.115Z,930.5
2016-11-30T01:44:59.535Z,930.53
2016-11-30T01:45:13.897Z,930.58
2016-11-30T01:45:28.229Z,930.56
2016-11-30T01:45:42.637Z,930.64
2016-11-30T01:45:57.073Z,930.58
2016-11-30T01:46:11.401Z,930.61
2016-11-30T01:46:25.828Z,930.67
2016-11-30T01:46:40.226Z,930.55
2016-11-30T01:46:54.719Z,930.51
2016-11-30T01:47:09.072Z,930.7
2016-11-30T01:47:23.479Z,930.52
2016-11-30T01:47:37.864Z,930.52
2016-11-30T01:47:52.199Z,930.54
2016-11-30T01:48:06.618Z,930.51
2016-11-30T01:48:21.057Z,930.54
2016-11-30T01:48:35.474Z,930.5
2016-11-30T01:48:49.979Z,930.46
2016-11-30T01:49:04.362Z,930.53
2016-11-30T01:49:18.748Z,930.5
2016-11-30T01:49:33.229Z,930.48
2016-11-30T01:49:47.619Z,930.46
2016-11-30T01:50:02.066Z,930.48
2016-11-30T01:50:16.491Z,930.45
2016-11-30T01:50:30.904Z,930.41
2016-11-30T01:50:45.307Z,930.47
2016-11-30T01:50:59.699Z,930.47
2016-11-30T01:51:14.167Z,930.49
2016-11-30T01:51:28.535Z,930.42
2016-11-30T01:51:42.968Z,930.41
2016-11-30T01:51:57.406Z,930.48
2016-11-30T01:52:11.735Z,930.51
2016-11-30T01:52:26.108Z,930.37
2016-11-30T01:52:40.497Z,930.49
2016-11-30T01:52:54.830Z,930.4
2016-11-30T01:53:09.231Z,930.45
2016-11-30T01:53:23.589Z,930.4
2016-11-30T01:53:37.950Z,930.44
2016-11-30T01:53:52.337Z,930.4
2016-11-30T01:54:06.741Z,930.42
2016-11-30T01:54:21.105Z,930.36
2016-11-30T01:54:35.429Z,930.37
2016-11-30T01:54:49.817Z,930.42
2016-11-30T01:55:04.603Z,930.35
2016-11-30T01:55:18.934Z,930.38
2016-11-30T01:55:33.297Z,930.35
2016-11-30T01:55:47.639Z,930.41
2016-11-30T01:56:02.108Z,930.4
2016-11-30T01:56:16.480Z,930.35
2016-11-30T01:56:30.867Z,930.36
2016-11-30T01:56:45.235Z,930.47
2016-11-30T01:56:59.636Z,930.31
2016-11-30T01:57:14.012Z,930.4
2016-11-30T01:57:28.470Z,930.55
2016-11-30T01:57:42.889Z,930.4
2016-11-30T01:57:57.247Z,930.53
2016-11-30T01:58:11.649Z,930.38
2016-11-30T01:58:26.031Z,930.39
2016-11-30T01:58:40.424Z,930.34
2016-11-30T01:58:54.901Z,930.51
2016-11-30T01:59:09.341Z,930.65
2016-11-30T01:59:23.706Z,930.34
2016-11-30T01:59:38.129Z,930.54
2016-11-30T01:59:52.516Z,930.55
2016-11-30T02:00:06.886Z,930.51
2016-11-30T02:00:21.251Z,930.48
2016-11-30T02:00:35.667Z,930.52
2016-11-30T02:00:50.074Z,930.56
2016-11-30T02:01:04.551Z,930.43
2016-11-30T02:01:18.968Z,930.56
2016-11-30T02:01:33.374Z,930.61
2016-11-30T02:01:47.739Z,930.49
2016-11-30T02:02:02.100Z,930.54
2016-11-30T02:02:16.488Z,930.55
2016-11-30T02:02:30.903Z,930.5
2016-11-30T02:02:45.257Z,930.48
2016-11-30T02:02:59.642Z,930.46
2016-11-30T02:03:14.004Z,930.45
2016-11-30T02:03:28.397Z,930.44
2016-11-30T02:03:42.681Z,930.51
2016-11-30T02:03:57.076Z,930.5
2016-11-30T02:04:11.519Z,930.46
2016-11-30T02:04:25.845Z,930.49
2016-11-30T02:04:40.236Z,930.49
2016-11-30T02:04:54.718Z,930.6
2016-11-30T02:05:09.123Z,930.6
2016-11-30T02:05:23.412Z,930.51
2016-11-30T02:05:37.849Z,930.54
2016-11-30T02:05:52.262Z,930.55
2016-11-30T02:06:06.701Z,930.47
2016-11-30T02:06:21.141Z,930.56
2016-11-30T02:06:35.529Z,930.49
2016-11-30T02:06:49.919Z,930.48
2016-11-30T02:07:04.375Z,930.46
2016-11-30T02:07:18.725Z,930.46
2016-11-30T02:07:33.055Z,930.5
2016-11-30T02:07:47.425Z,930.46
2016-11-30T02:08:01.872Z,930.52
2016-11-30T02:08:16.276Z,930.46
2016-11-30T02:08:30.599Z,930.47
2016-11-30T02:08:44.930Z,930.71
2016-11-30T02:08:59.328Z,930.44
2016-11-30T02:09:13.753Z,930.59
2016-11-30T02:09:28.180Z,930.54
2016-11-30T02:09:42.629Z,930.52
2016-11-30T02:09:57.035Z,930.65
2016-11-30T02:10:11.671Z,930.54
2016-11-30T02:10:26.068Z,930.56
2016-11-30T02:10:40.505Z,930.45
2016-11-30T02:10:54.917Z,930.45
2016-11-30T02:11:09.325Z,930.51
2016-11-30T02:11:23.761Z,930.57
2016-11-30T02:11:38.227Z,930.49
2016-11-30T02:11:52.578Z,930.47
2016-11-30T02:12:06.990Z,930.51
2016-11-30T02:12:21.354Z,930.61
2016-11-30T02:12:35.830Z,930.47
2016-11-30T02:12:50.259Z,930.5
2016-11-30T02:13:04.660Z,930.48
2016-11-30T02:13:19.035Z,930.48
2016-11-30T02:13:33.438Z,930.44
2016-11-30T02:13:47.807Z,930.45
2016-11-30T02:14:02.168Z,930.47
2016-11-30T02:14:16.570Z,930.47
2016-11-30T02:14:30.939Z,930.63
2016-11-30T02:14:45.411Z,930.4
2016-11-30T02:14:59.873Z,930.45
2016-11-30T02:15:14.257Z,930.39
2016-11-30T02:15:28.698Z,930.34
2016-11-30T02:15:43.115Z,930.47
2016-11-30T02:15:57.558Z,930.47
2016-11-30T02:16:11.996Z,930.39
2016-11-30T02:16:26.361Z,930.37
2016-11-30T02:16:40.797Z,930.47
2016-11-30T02:16:55.154Z,930.38
2016-11-30T02:17:09.526Z,930.39
2016-11-30T02:17:23.918Z,930.37
2016-11-30T02:17:38.229Z,930.39
2016-11-30T02:17:52.589Z,930.46
2016-11-30T02:18:06.933Z,930.42
2016-11-30T02:18:21.267Z,930.5
2016-11-30T02:18:35.622Z,930.35
2016-11-30T02:18:49.975Z,930.35
2016-11-30T02:19:04.415Z,930.33
2016-11-30T02:19:18.826Z,930.38
2016-11-30T02:19:33.174Z,930.33
2016-11-30T02:19:47.601Z,930.35
2016-11-30T02:20:02.024Z,930.45
2016-11-30T02:20:16.478Z,930.41
2016-11-30T02:20:30.885Z,930.42
2016-11-30T02:20:45.273Z,930.37
2016-11-30T02:20:59.602Z,930.36
2016-11-30T02:21:13.974Z,930.34
2016-11-30T02:21:28.288Z,930.37
2016-11-30T02:21:42.689Z,930.34
2016-11-30T02:21:57.105Z,930.35
2016-11-30T02:22:11.482Z,930.36
2016-11-30T02:22:25.871Z,930.38
2016-11-30T02:22:40.338Z,930.38
2016-11-30T02:22:54.742Z,930.4
2016-11-30T02:23:09.080Z,930.46
2016-11-30T02:23:23.570Z,930.51
2016-11-30T02:23:37.973Z,930.41
2016-11-30T02:23:52.378Z,930.46
2016-11-30T02:24:06.769Z,930.39
2016-11-30T02:24:21.098Z,930.42
2016-11-30T02:24:35.482Z,930.41
2016-11-30T02:24:49.879Z,930.38
2016-11-30T02:25:04.283Z,930.45
2016-11-30T02:25:18.958Z,930.38
2016-11-30T02:25:33.363Z,930.41
2016-11-30T02:25:47.761Z,930.47
2016-11-30T02:26:02.110Z,930.52
2016-11-30T02:26:16.468Z,930.49
2016-11-30T02:26:30.846Z,930.42
2016-11-30T02:26:45.205Z,930.47
2016-11-30T02:26:59.528Z,930.51
2016-11-30T02:27:13.945Z,930.44
2016-11-30T02:27:28.295Z,930.53
2016-11-30T02:27:42.671Z,930.51
2016-11-30T02:27:57.092Z,930.47
2016-11-30T02:28:11.400Z,930.49
2016-11-30T02:28:25.798Z,930.49
2016-11-30T02:28:40.140Z,930.48
2016-11-30T02:28:54.493Z,930.49
2016-11-30T02:29:08.852Z,930.53
2016-11-30T02:29:23.268Z,930.5
2016-11-30T02:29:37.645Z,930.5
2016-11-30T02:29:51.968Z,930.45
2016-11-30T02:30:06.375Z,930.47
2016-11-30T02:30:20.769Z,930.47
2016-11-30T02:30:35.166Z,930.52
2016-11-30T02:30:49.545Z,930.49
2016-11-30T02:31:03.916Z,930.47
2016-11-30T02:31:18.326Z,930.48
2016-11-30T02:31:32.696Z,930.53
2016-11-30T02:31:47.119Z,930.52
2016-11-30T02:32:01.488Z,930.55
2016-11-30T02:32:15.941Z,930.51
2016-11-30T02:32:30.374Z,930.51
2016-11-30T02:32:44.677Z,930.51
2016-11-30T02:32:58.996Z,930.58
2016-11-30T02:33:13.342Z,930.51
2016-11-30T02:33:27.722Z,930.52
2016-11-30T02:33:42.081Z,930.45
2016-11-30T02:33:56.414Z,930.53
2016-11-30T02:34:10.714Z,930.51
2016-11-30T02:34:25.094Z,930.52
2016-11-30T02:34:39.512Z,930.51
2016-11-30T02:34:53.943Z,930.46
2016-11-30T02:35:08.372Z,930.47
2016-11-30T02:35:22.661Z,930.51
2016-11-30T02:35:37.049Z,930.51
2016-11-30T02:35:51.485Z,930.52
2016-11-30T02:36:05.914Z,930.58
2016-11-30T02:36:20.272Z,930.59
2016-11-30T02:36:34.669Z,930.55
2016-11-30T02:36:49.004Z,930.54
2016-11-30T02:37:03.395Z,930.49
2016-11-30T02:37:17.755Z,930.5
2016-11-30T02:37:32.182Z,930.53
2016-11-30T02:37:46.589Z,930.47
2016-11-30T02:38:00.981Z,930.52
2016-11-30T02:38:15.400Z,930.51
2016-11-30T02:38:29.835Z,930.51
2016-11-30T02:38:44.225Z,930.52
2016-11-30T02:38:58.681Z,930.53
2016-11-30T02:39:13.075Z,930.49
2016-11-30T02:39:27.537Z,930.54
2016-11-30T02:39:41.983Z,930.48
2016-11-30T02:39:56.386Z,930.52
2016-11-30T02:40:10.865Z,930.4
2016-11-30T02:40:25.499Z,930.4
2016-11-30T02:40:39.923Z,930.41
2016-11-30T02:40:54.402Z,930.38
2016-11-30T02:41:08.801Z,930.4
2016-11-30T02:41:23.213Z,930.38
2016-11-30T02:41:37.528Z,930.38
2016-11-30T02:41:51.877Z,930.41
2016-11-30T02:42:06.320Z,930.32
2016-11-30T02:42:20.764Z,930.37
2016-11-30T02:42:35.174Z,930.34
2016-11-30T02:42:49.605Z,930.31
2016-11-30T02:43:04.010Z,930.32
2016-11-30T02:43:18.368Z,930.34
2016-11-30T02:43:32.784Z,930.33
2016-11-30T02:43:47.178Z,930.3
2016-11-30T02:44:01.566Z,930.26
2016-11-30T02:44:15.976Z,930.24
2016-11-30T02:44:30.350Z,930.23
2016-11-30T02:44:44.739Z,930.24
2016-11-30T02:44:59.073Z,930.24
2016-11-30T02:45:13.441Z,930.23
2016-11-30T02:45:27.756Z,930.2
2016-11-30T02:45:42.110Z,930.26
2016-11-30T02:45:56.524Z,930.23
2016-11-30T02:46:10.948Z,930.17
2016-11-30T02:46:25.349Z,930.33
2016-11-30T02:46:39.819Z,930.23
2016-11-30T02:46:54.176Z,930.26
2016-11-30T02:47:08.574Z,930.22
2016-11-30T02:47:22.944Z,930.24
2016-11-30T02:47:37.357Z,930.24
2016-11-30T02:47:51.842Z,930.21
2016-11-30T02:48:06.336Z,930.23
2016-11-30T02:48:20.676Z,930.23
2016-11-30T02:48:35.112Z,930.27
2016-11-30T02:48:49.471Z,930.27
2016-11-30T02:49:03.817Z,930.22
2016-11-30T02:49:18.123Z,930.29
2016-11-30T02:49:32.535Z,930.24
2016-11-30T02:49:46.891Z,930.22
2016-11-30T02:50:01.342Z,930.28
2016-11-30T02:50:15.720Z,930.26
2016-11-30T02:50:30.176Z,930.22
2016-11-30T02:50:44.573Z,930.18
2016-11-30T02:50:58.972Z,930.18
2016-11-30T02:51:13.385Z,930.19
2016-11-30T02:51:27.739Z,930.24
2016-11-30T02:51:42.103Z,930.27
2016-11-30T02:51:56.519Z,930.19
2016-11-30T02:52:10.950Z,930.22
2016-11-30T02:52:25.313Z,930.29
2016-11-30T02:52:39.711Z,930.24
2016-11-30T02:52:54.109Z,930.28
2016-11-30T02:53:08.480Z,930.23
2016-11-30T02:53:22.985Z,930.21
2016-11-30T02:53:37.315Z,930.19
2016-11-30T02:53:51.718Z,930.23
2016-11-30T02:54:06.103Z,930.24
2016-11-30T02:54:20.470Z,930.25
2016-11-30T02:54:34.979Z,930.22
2016-11-30T02:54:49.386Z,930.23
2016-11-30T02:55:03.782Z,930.21
2016-11-30T02:55:18.130Z,930.27
2016-11-30T02:55:32.771Z,930.3
2016-11-30T02:55:47.185Z,930.26
2016-11-30T02:56:01.610Z,930.31
2016-11-30T02:56:16.049Z,930.16
2016-11-30T02:56:30.485Z,930.16
2016-11-30T02:56:44.849Z,930.19
2016-11-30T02:56:59.279Z,930.1
2016-11-30T02:57:13.654Z,930.18
2016-11-30T02:57:28.055Z,930.14
2016-11-30T02:57:42.427Z,930.24
2016-11-30T02:57:56.801Z,930.18
2016-11-30T02:58:11.262Z,930.13
2016-11-30T02:58:25.628Z,930.13
2016-11-30T02:58:40.078Z,930.16
2016-11-30T02:58:54.441Z,930.2
2016-11-30T02:59:08.808Z,930.11
2016-11-30T02:59:23.237Z,930.13
2016-11-30T02:59:37.678Z,930.12
2016-11-30T02:59:52.122Z,930.09
2016-11-30T03:00:06.476Z,930.08
2016-11-30T03:00:20.853Z,930.1
2016-11-30T03:00:35.180Z,930.07
2016-11-30T03:00:49.573Z,930.07